<?xml version="1.0" encoding="utf-8"?>
<gpx xmlns:xsi="http://www.w3.org/2001/XMLSchema-instance" xmlns:xsd="http://www.w3.org/2001/XMLSchema" version="1.1" creator="Shapelink.com" xmlns="http://www.topografix.com/GPX/1/1" xmlns:gpxtpx="http://www.garmin.com/xmlschemas/TrackPointExtension/v1">
  <metadata>
    <name>Ejecutar 3.87 km, 2020-02-06</name>
    <desc></desc>
    <author><name>Per Rooth</name></author> 
    <time>2020-02-06T18:24:11Z</time>
  </metadata>
  <trk>
    <name>Ejecutar 3.87 km, 2020-02-06</name>
    <trkseg>
      <trkpt lat="56.915889071397" lon="14.829307687581">
        <ele>156.6</ele>
        <time>2020-02-06T18:24:11Z</time>
      </trkpt>
      <trkpt lat="56.915860992032" lon="14.829324199924">
        <ele>157.2</ele>
        <time>2020-02-06T18:24:13Z</time>
      </trkpt>
      <trkpt lat="56.915776670118" lon="14.829295366188">
        <ele>156.2</ele>
        <time>2020-02-06T18:24:18Z</time>
      </trkpt>
      <trkpt lat="56.915620012407" lon="14.829186485307">
        <ele>156.4</ele>
        <time>2020-02-06T18:24:24Z</time>
      </trkpt>
      <trkpt lat="56.915604338254" lon="14.829138037925">
        <ele>156.4</ele>
        <time>2020-02-06T18:24:27Z</time>
      </trkpt>
      <trkpt lat="56.91555019118" lon="14.829183300185">
        <ele>156</ele>
        <time>2020-02-06T18:24:39Z</time>
      </trkpt>
      <trkpt lat="56.915567541713" lon="14.829238956001">
        <ele>156.2</ele>
        <time>2020-02-06T18:24:43Z</time>
      </trkpt>
      <trkpt lat="56.915567374075" lon="14.829262341502">
        <ele>156.2</ele>
        <time>2020-02-06T18:24:44Z</time>
      </trkpt>
      <trkpt lat="56.915609367394" lon="14.829624271944">
        <ele>156.2</ele>
        <time>2020-02-06T18:24:54Z</time>
      </trkpt>
      <trkpt lat="56.915731659315" lon="14.829639946097">
        <ele>157.4</ele>
        <time>2020-02-06T18:25:00Z</time>
      </trkpt>
      <trkpt lat="56.915758984309" lon="14.82964220921">
        <ele>157.6</ele>
        <time>2020-02-06T18:25:01Z</time>
      </trkpt>
      <trkpt lat="56.915784800561" lon="14.82966651672">
        <ele>157.6</ele>
        <time>2020-02-06T18:25:02Z</time>
      </trkpt>
      <trkpt lat="56.915788740054" lon="14.829726698762">
        <ele>157</ele>
        <time>2020-02-06T18:25:04Z</time>
      </trkpt>
      <trkpt lat="56.915773233539" lon="14.829769865547">
        <ele>156.4</ele>
        <time>2020-02-06T18:25:05Z</time>
      </trkpt>
      <trkpt lat="56.915723445053" lon="14.829945382533">
        <ele>155.4</ele>
        <time>2020-02-06T18:25:08Z</time>
      </trkpt>
      <trkpt lat="56.91565580312" lon="14.830256518661">
        <ele>156</ele>
        <time>2020-02-06T18:25:12Z</time>
      </trkpt>
      <trkpt lat="56.915618419846" lon="14.830616353628">
        <ele>155.6</ele>
        <time>2020-02-06T18:25:18Z</time>
      </trkpt>
      <trkpt lat="56.915603500064" lon="14.83097074036">
        <ele>155.2</ele>
        <time>2020-02-06T18:25:26Z</time>
      </trkpt>
      <trkpt lat="56.915543318022" lon="14.831046093641">
        <ele>156.6</ele>
        <time>2020-02-06T18:25:30Z</time>
      </trkpt>
      <trkpt lat="56.915536025769" lon="14.831086075304">
        <ele>157</ele>
        <time>2020-02-06T18:25:32Z</time>
      </trkpt>
      <trkpt lat="56.915546419325" lon="14.831114825221">
        <ele>157.2</ele>
        <time>2020-02-06T18:25:34Z</time>
      </trkpt>
      <trkpt lat="56.915505180377" lon="14.831193866538">
        <ele>157.6</ele>
        <time>2020-02-06T18:25:38Z</time>
      </trkpt>
      <trkpt lat="56.915482549247" lon="14.831248851802">
        <ele>158</ele>
        <time>2020-02-06T18:25:40Z</time>
      </trkpt>
      <trkpt lat="56.915440975023" lon="14.831387404609">
        <ele>159</ele>
        <time>2020-02-06T18:25:43Z</time>
      </trkpt>
      <trkpt lat="56.915378110773" lon="14.831623355094">
        <ele>159.6</ele>
        <time>2020-02-06T18:25:49Z</time>
      </trkpt>
      <trkpt lat="56.915341565689" lon="14.831698540737">
        <ele>159.6</ele>
        <time>2020-02-06T18:25:52Z</time>
      </trkpt>
      <trkpt lat="56.915331088314" lon="14.831770457439">
        <ele>159.4</ele>
        <time>2020-02-06T18:25:54Z</time>
      </trkpt>
      <trkpt lat="56.915311558487" lon="14.831824604513">
        <ele>159.6</ele>
        <time>2020-02-06T18:25:57Z</time>
      </trkpt>
      <trkpt lat="56.91528783771" lon="14.831868777126">
        <ele>160</ele>
        <time>2020-02-06T18:25:59Z</time>
      </trkpt>
      <trkpt lat="56.91527610305" lon="14.831885121831">
        <ele>160.2</ele>
        <time>2020-02-06T18:26:00Z</time>
      </trkpt>
      <trkpt lat="56.91525347192" lon="14.831927701883">
        <ele>160.8</ele>
        <time>2020-02-06T18:26:02Z</time>
      </trkpt>
      <trkpt lat="56.915250789712" lon="14.831942789303">
        <ele>161.2</ele>
        <time>2020-02-06T18:26:03Z</time>
      </trkpt>
      <trkpt lat="56.915251376445" lon="14.831957625266">
        <ele>161.6</ele>
        <time>2020-02-06T18:26:04Z</time>
      </trkpt>
      <trkpt lat="56.915252046997" lon="14.832025015742">
        <ele>162.2</ele>
        <time>2020-02-06T18:26:07Z</time>
      </trkpt>
      <trkpt lat="56.915232600989" lon="14.832079162816">
        <ele>162.2</ele>
        <time>2020-02-06T18:26:09Z</time>
      </trkpt>
      <trkpt lat="56.91517887301" lon="14.832254428345">
        <ele>162.6</ele>
        <time>2020-02-06T18:26:15Z</time>
      </trkpt>
      <trkpt lat="56.915150709826" lon="14.832413935902">
        <ele>161.8</ele>
        <time>2020-02-06T18:26:21Z</time>
      </trkpt>
      <trkpt lat="56.915140400089" lon="14.832434639195">
        <ele>161.2</ele>
        <time>2020-02-06T18:26:22Z</time>
      </trkpt>
      <trkpt lat="56.915116595493" lon="14.832497754902">
        <ele>160</ele>
        <time>2020-02-06T18:26:24Z</time>
      </trkpt>
      <trkpt lat="56.915095389286" lon="14.832585513395">
        <ele>158.6</ele>
        <time>2020-02-06T18:26:26Z</time>
      </trkpt>
      <trkpt lat="56.915094718734" lon="14.832625662696">
        <ele>158</ele>
        <time>2020-02-06T18:26:27Z</time>
      </trkpt>
      <trkpt lat="56.915098322951" lon="14.832662710694">
        <ele>157.2</ele>
        <time>2020-02-06T18:26:28Z</time>
      </trkpt>
      <trkpt lat="56.91510595048" lon="14.83273932126">
        <ele>155.8</ele>
        <time>2020-02-06T18:26:30Z</time>
      </trkpt>
      <trkpt lat="56.91515121274" lon="14.83288181356">
        <ele>155</ele>
        <time>2020-02-06T18:26:35Z</time>
      </trkpt>
      <trkpt lat="56.915137717881" lon="14.832900421378">
        <ele>154.8</ele>
        <time>2020-02-06T18:26:36Z</time>
      </trkpt>
      <trkpt lat="56.914967313854" lon="14.833015672503">
        <ele>154.4</ele>
        <time>2020-02-06T18:26:43Z</time>
      </trkpt>
      <trkpt lat="56.914892547306" lon="14.833060012754">
        <ele>154.6</ele>
        <time>2020-02-06T18:26:46Z</time>
      </trkpt>
      <trkpt lat="56.914862288647" lon="14.83306202441">
        <ele>155.6</ele>
        <time>2020-02-06T18:26:48Z</time>
      </trkpt>
      <trkpt lat="56.914855666946" lon="14.833076357459">
        <ele>156</ele>
        <time>2020-02-06T18:26:49Z</time>
      </trkpt>
      <trkpt lat="56.914800681682" lon="14.833147435971">
        <ele>156.4</ele>
        <time>2020-02-06T18:26:52Z</time>
      </trkpt>
      <trkpt lat="56.914733961758" lon="14.833236870844">
        <ele>155.6</ele>
        <time>2020-02-06T18:26:55Z</time>
      </trkpt>
      <trkpt lat="56.914696997579" lon="14.833244330735">
        <ele>155</ele>
        <time>2020-02-06T18:26:57Z</time>
      </trkpt>
      <trkpt lat="56.914642599048" lon="14.833285653502">
        <ele>155.2</ele>
        <time>2020-02-06T18:27:00Z</time>
      </trkpt>
      <trkpt lat="56.914586524137" lon="14.83344507724">
        <ele>155.6</ele>
        <time>2020-02-06T18:27:04Z</time>
      </trkpt>
      <trkpt lat="56.914582249368" lon="14.833504253454">
        <ele>155.2</ele>
        <time>2020-02-06T18:27:06Z</time>
      </trkpt>
      <trkpt lat="56.914631032026" lon="14.833606931729">
        <ele>155</ele>
        <time>2020-02-06T18:27:10Z</time>
      </trkpt>
      <trkpt lat="56.914643437238" lon="14.833775407919">
        <ele>155</ele>
        <time>2020-02-06T18:27:15Z</time>
      </trkpt>
      <trkpt lat="56.914594235485" lon="14.833869117561">
        <ele>155.2</ele>
        <time>2020-02-06T18:27:19Z</time>
      </trkpt>
      <trkpt lat="56.914422741811" lon="14.834049244592">
        <ele>155.8</ele>
        <time>2020-02-06T18:27:29Z</time>
      </trkpt>
      <trkpt lat="56.914381586682" lon="14.83402091377">
        <ele>155.6</ele>
        <time>2020-02-06T18:27:32Z</time>
      </trkpt>
      <trkpt lat="56.914346717978" lon="14.834002725047">
        <ele>155.4</ele>
        <time>2020-02-06T18:27:34Z</time>
      </trkpt>
      <trkpt lat="56.914321823735" lon="14.834003227961">
        <ele>155</ele>
        <time>2020-02-06T18:27:36Z</time>
      </trkpt>
      <trkpt lat="56.914300366071" lon="14.834008508558">
        <ele>155</ele>
        <time>2020-02-06T18:27:37Z</time>
      </trkpt>
      <trkpt lat="56.914245296988" lon="14.834035330638">
        <ele>156</ele>
        <time>2020-02-06T18:27:40Z</time>
      </trkpt>
      <trkpt lat="56.914231215396" lon="14.834039102493">
        <ele>156.6</ele>
        <time>2020-02-06T18:27:42Z</time>
      </trkpt>
      <trkpt lat="56.914207494619" lon="14.834057207397">
        <ele>157.2</ele>
        <time>2020-02-06T18:27:44Z</time>
      </trkpt>
      <trkpt lat="56.914180337263" lon="14.834110516281">
        <ele>158</ele>
        <time>2020-02-06T18:27:47Z</time>
      </trkpt>
      <trkpt lat="56.914151503527" lon="14.834126441891">
        <ele>158.4</ele>
        <time>2020-02-06T18:27:49Z</time>
      </trkpt>
      <trkpt lat="56.914146725844" lon="14.834125016968">
        <ele>158.6</ele>
        <time>2020-02-06T18:27:50Z</time>
      </trkpt>
      <trkpt lat="56.914120490497" lon="14.834142535139">
        <ele>158.8</ele>
        <time>2020-02-06T18:27:52Z</time>
      </trkpt>
      <trkpt lat="56.914100625394" lon="14.834137003085">
        <ele>159</ele>
        <time>2020-02-06T18:27:54Z</time>
      </trkpt>
      <trkpt lat="56.914080257377" lon="14.834123675864">
        <ele>158.8</ele>
        <time>2020-02-06T18:27:56Z</time>
      </trkpt>
      <trkpt lat="56.914066259604" lon="14.834128537366">
        <ele>158.4</ele>
        <time>2020-02-06T18:27:57Z</time>
      </trkpt>
      <trkpt lat="56.914047651786" lon="14.83412904028">
        <ele>158.2</ele>
        <time>2020-02-06T18:27:58Z</time>
      </trkpt>
      <trkpt lat="56.914022086991" lon="14.834152593419">
        <ele>157.8</ele>
        <time>2020-02-06T18:28:00Z</time>
      </trkpt>
      <trkpt lat="56.914006664295" lon="14.834176649472">
        <ele>157.2</ele>
        <time>2020-02-06T18:28:02Z</time>
      </trkpt>
      <trkpt lat="56.913993420893" lon="14.834204309742">
        <ele>156.8</ele>
        <time>2020-02-06T18:28:04Z</time>
      </trkpt>
      <trkpt lat="56.913971544134" lon="14.834241441559">
        <ele>156.6</ele>
        <time>2020-02-06T18:28:08Z</time>
      </trkpt>
      <trkpt lat="56.913921420372" lon="14.834311346605">
        <ele>157</ele>
        <time>2020-02-06T18:28:12Z</time>
      </trkpt>
      <trkpt lat="56.913869452592" lon="14.834330960251">
        <ele>157</ele>
        <time>2020-02-06T18:28:15Z</time>
      </trkpt>
      <trkpt lat="56.913826621083" lon="14.834301036868">
        <ele>156.2</ele>
        <time>2020-02-06T18:28:19Z</time>
      </trkpt>
      <trkpt lat="56.913735928925" lon="14.834281087946">
        <ele>156.2</ele>
        <time>2020-02-06T18:28:24Z</time>
      </trkpt>
      <trkpt lat="56.91356116631" lon="14.834090148264">
        <ele>156.2</ele>
        <time>2020-02-06T18:28:34Z</time>
      </trkpt>
      <trkpt lat="56.913412890499" lon="14.833848917182">
        <ele>157.2</ele>
        <time>2020-02-06T18:28:41Z</time>
      </trkpt>
      <trkpt lat="56.913273248045" lon="14.833640543148">
        <ele>157</ele>
        <time>2020-02-06T18:28:50Z</time>
      </trkpt>
      <trkpt lat="56.913225555034" lon="14.83358673135">
        <ele>157.4</ele>
        <time>2020-02-06T18:28:53Z</time>
      </trkpt>
      <trkpt lat="56.913198481497" lon="14.833565106048">
        <ele>158.2</ele>
        <time>2020-02-06T18:28:55Z</time>
      </trkpt>
      <trkpt lat="56.913194542004" lon="14.83354649823">
        <ele>158.4</ele>
        <time>2020-02-06T18:28:56Z</time>
      </trkpt>
      <trkpt lat="56.913194625823" lon="14.833511629526">
        <ele>158.6</ele>
        <time>2020-02-06T18:28:58Z</time>
      </trkpt>
      <trkpt lat="56.913194458185" lon="14.833490590957">
        <ele>158.8</ele>
        <time>2020-02-06T18:29:00Z</time>
      </trkpt>
      <trkpt lat="56.913081302535" lon="14.833219101216">
        <ele>159.4</ele>
        <time>2020-02-06T18:29:10Z</time>
      </trkpt>
      <trkpt lat="56.913051965885" lon="14.833160008821">
        <ele>159.6</ele>
        <time>2020-02-06T18:29:11Z</time>
      </trkpt>
      <trkpt lat="56.912921292064" lon="14.832862619009">
        <ele>160.2</ele>
        <time>2020-02-06T18:29:17Z</time>
      </trkpt>
      <trkpt lat="56.912941240986" lon="14.83259096163">
        <ele>159.6</ele>
        <time>2020-02-06T18:29:22Z</time>
      </trkpt>
      <trkpt lat="56.912973259844" lon="14.832507058811">
        <ele>160</ele>
        <time>2020-02-06T18:29:24Z</time>
      </trkpt>
      <trkpt lat="56.913020114665" lon="14.832456683592">
        <ele>160.6</ele>
        <time>2020-02-06T18:29:26Z</time>
      </trkpt>
      <trkpt lat="56.91321331746" lon="14.832360207923">
        <ele>159.8</ele>
        <time>2020-02-06T18:29:33Z</time>
      </trkpt>
      <trkpt lat="56.913379781994" lon="14.832249399205">
        <ele>160.8</ele>
        <time>2020-02-06T18:29:40Z</time>
      </trkpt>
      <trkpt lat="56.91346058351" lon="14.83211989885">
        <ele>160.8</ele>
        <time>2020-02-06T18:29:45Z</time>
      </trkpt>
      <trkpt lat="56.913510371996" lon="14.832002133155">
        <ele>161</ele>
        <time>2020-02-06T18:29:50Z</time>
      </trkpt>
      <trkpt lat="56.913521603742" lon="14.831931138462">
        <ele>161.2</ele>
        <time>2020-02-06T18:29:53Z</time>
      </trkpt>
      <trkpt lat="56.913521268466" lon="14.831867771298">
        <ele>161.6</ele>
        <time>2020-02-06T18:29:56Z</time>
      </trkpt>
      <trkpt lat="56.913549347831" lon="14.831803649763">
        <ele>161.6</ele>
        <time>2020-02-06T18:29:59Z</time>
      </trkpt>
      <trkpt lat="56.913581534327" lon="14.831727709749">
        <ele>161.6</ele>
        <time>2020-02-06T18:30:01Z</time>
      </trkpt>
      <trkpt lat="56.913653031934" lon="14.831538530266">
        <ele>161.2</ele>
        <time>2020-02-06T18:30:07Z</time>
      </trkpt>
      <trkpt lat="56.913636184315" lon="14.83149796187">
        <ele>160.6</ele>
        <time>2020-02-06T18:30:09Z</time>
      </trkpt>
      <trkpt lat="56.91366761644" lon="14.83144850866">
        <ele>159.8</ele>
        <time>2020-02-06T18:30:13Z</time>
      </trkpt>
      <trkpt lat="56.913695444348" lon="14.831402743486">
        <ele>159.6</ele>
        <time>2020-02-06T18:30:15Z</time>
      </trkpt>
      <trkpt lat="56.913736767115" lon="14.831335939743">
        <ele>159.4</ele>
        <time>2020-02-06T18:30:17Z</time>
      </trkpt>
      <trkpt lat="56.913851766783" lon="14.831078363956">
        <ele>158.6</ele>
        <time>2020-02-06T18:30:23Z</time>
      </trkpt>
      <trkpt lat="56.913965760623" lon="14.830851968837">
        <ele>158.2</ele>
        <time>2020-02-06T18:30:29Z</time>
      </trkpt>
      <trkpt lat="56.913970873582" lon="14.830699921171">
        <ele>157.2</ele>
        <time>2020-02-06T18:30:34Z</time>
      </trkpt>
      <trkpt lat="56.914010017055" lon="14.8305650564">
        <ele>157.2</ele>
        <time>2020-02-06T18:30:38Z</time>
      </trkpt>
      <trkpt lat="56.914060559912" lon="14.830417199684">
        <ele>157.4</ele>
        <time>2020-02-06T18:30:44Z</time>
      </trkpt>
      <trkpt lat="56.914094087512" lon="14.830346959362">
        <ele>157.2</ele>
        <time>2020-02-06T18:30:48Z</time>
      </trkpt>
      <trkpt lat="56.914110013122" lon="14.830310079002">
        <ele>157</ele>
        <time>2020-02-06T18:30:50Z</time>
      </trkpt>
      <trkpt lat="56.914142702532" lon="14.830244113449">
        <ele>156.8</ele>
        <time>2020-02-06T18:30:54Z</time>
      </trkpt>
      <trkpt lat="56.914218391089" lon="14.830105812099">
        <ele>156.8</ele>
        <time>2020-02-06T18:30:59Z</time>
      </trkpt>
      <trkpt lat="56.914228449369" lon="14.830054933966">
        <ele>156.8</ele>
        <time>2020-02-06T18:31:01Z</time>
      </trkpt>
      <trkpt lat="56.914265581186" lon="14.830037415795">
        <ele>156.8</ele>
        <time>2020-02-06T18:31:06Z</time>
      </trkpt>
      <trkpt lat="56.914293576732" lon="14.830035487958">
        <ele>156.6</ele>
        <time>2020-02-06T18:31:08Z</time>
      </trkpt>
      <trkpt lat="56.914314531482" lon="14.830059208735">
        <ele>156.6</ele>
        <time>2020-02-06T18:31:10Z</time>
      </trkpt>
      <trkpt lat="56.914336575879" lon="14.830073625603">
        <ele>156.6</ele>
        <time>2020-02-06T18:31:12Z</time>
      </trkpt>
      <trkpt lat="56.914349484005" lon="14.8300789062">
        <ele>156.4</ele>
        <time>2020-02-06T18:31:14Z</time>
      </trkpt>
      <trkpt lat="56.914384520347" lon="14.830066081893">
        <ele>156.6</ele>
        <time>2020-02-06T18:31:17Z</time>
      </trkpt>
      <trkpt lat="56.914464986587" lon="14.830023334203">
        <ele>157.2</ele>
        <time>2020-02-06T18:31:21Z</time>
      </trkpt>
      <trkpt lat="56.914498346549" lon="14.830023837117">
        <ele>157.2</ele>
        <time>2020-02-06T18:31:23Z</time>
      </trkpt>
      <trkpt lat="56.914638659555" lon="14.83005711326">
        <ele>156.6</ele>
        <time>2020-02-06T18:31:31Z</time>
      </trkpt>
      <trkpt lat="56.914693644819" lon="14.830073290327">
        <ele>156.4</ele>
        <time>2020-02-06T18:31:34Z</time>
      </trkpt>
      <trkpt lat="56.914740751097" lon="14.830067422997">
        <ele>156.4</ele>
        <time>2020-02-06T18:31:37Z</time>
      </trkpt>
      <trkpt lat="56.914749468273" lon="14.830054347233">
        <ele>156.2</ele>
        <time>2020-02-06T18:31:39Z</time>
      </trkpt>
      <trkpt lat="56.914747540436" lon="14.830060885115">
        <ele>156.2</ele>
        <time>2020-02-06T18:31:41Z</time>
      </trkpt>
      <trkpt lat="56.914819876233" lon="14.829928786371">
        <ele>156.4</ele>
        <time>2020-02-06T18:31:52Z</time>
      </trkpt>
      <trkpt lat="56.914860696086" lon="14.829647992721">
        <ele>156.6</ele>
        <time>2020-02-06T18:31:59Z</time>
      </trkpt>
      <trkpt lat="56.914882656664" lon="14.829542380781">
        <ele>156.4</ele>
        <time>2020-02-06T18:32:02Z</time>
      </trkpt>
      <trkpt lat="56.914923057422" lon="14.829202410917">
        <ele>155.8</ele>
        <time>2020-02-06T18:32:10Z</time>
      </trkpt>
      <trkpt lat="56.914967900587" lon="14.829019182583">
        <ele>156</ele>
        <time>2020-02-06T18:32:15Z</time>
      </trkpt>
      <trkpt lat="56.91495423809" lon="14.82895992255">
        <ele>155.8</ele>
        <time>2020-02-06T18:32:17Z</time>
      </trkpt>
      <trkpt lat="56.914934708263" lon="14.828943829302">
        <ele>155.6</ele>
        <time>2020-02-06T18:32:19Z</time>
      </trkpt>
      <trkpt lat="56.914913837332" lon="14.828846683081">
        <ele>155.4</ele>
        <time>2020-02-06T18:32:24Z</time>
      </trkpt>
      <trkpt lat="56.914868575072" lon="14.828852885687">
        <ele>154.8</ele>
        <time>2020-02-06T18:32:34Z</time>
      </trkpt>
      <trkpt lat="56.914846530675" lon="14.828806952875">
        <ele>154.8</ele>
        <time>2020-02-06T18:32:37Z</time>
      </trkpt>
      <trkpt lat="56.914859019706" lon="14.828777448587">
        <ele>154.8</ele>
        <time>2020-02-06T18:32:39Z</time>
      </trkpt>
      <trkpt lat="56.914882656664" lon="14.828736377277">
        <ele>154.8</ele>
        <time>2020-02-06T18:32:41Z</time>
      </trkpt>
      <trkpt lat="56.914897408808" lon="14.828698910184">
        <ele>154.8</ele>
        <time>2020-02-06T18:32:43Z</time>
      </trkpt>
      <trkpt lat="56.914919620843" lon="14.828617521935">
        <ele>155</ele>
        <time>2020-02-06T18:32:45Z</time>
      </trkpt>
      <trkpt lat="56.914946023828" lon="14.828573265503">
        <ele>156</ele>
        <time>2020-02-06T18:32:47Z</time>
      </trkpt>
      <trkpt lat="56.914955495375" lon="14.828553316581">
        <ele>156</ele>
        <time>2020-02-06T18:32:48Z</time>
      </trkpt>
      <trkpt lat="56.914957255574" lon="14.828493553634">
        <ele>156.2</ele>
        <time>2020-02-06T18:32:50Z</time>
      </trkpt>
      <trkpt lat="56.914876621696" lon="14.828385930038">
        <ele>156.4</ele>
        <time>2020-02-06T18:32:55Z</time>
      </trkpt>
      <trkpt lat="56.914857091869" lon="14.828373357188">
        <ele>156.2</ele>
        <time>2020-02-06T18:32:57Z</time>
      </trkpt>
      <trkpt lat="56.914818116034" lon="14.828332788792">
        <ele>156.2</ele>
        <time>2020-02-06T18:33:03Z</time>
      </trkpt>
      <trkpt lat="56.914806884288" lon="14.828342595615">
        <ele>156.2</ele>
        <time>2020-02-06T18:33:04Z</time>
      </trkpt>
      <trkpt lat="56.914769584833" lon="14.828350055506">
        <ele>156</ele>
        <time>2020-02-06T18:33:07Z</time>
      </trkpt>
      <trkpt lat="56.914703535461" lon="14.828345948375">
        <ele>155.4</ele>
        <time>2020-02-06T18:33:13Z</time>
      </trkpt>
      <trkpt lat="56.914676629562" lon="14.828344942547">
        <ele>155.4</ele>
        <time>2020-02-06T18:33:14Z</time>
      </trkpt>
      <trkpt lat="56.914647544369" lon="14.828309906205">
        <ele>155.4</ele>
        <time>2020-02-06T18:33:17Z</time>
      </trkpt>
      <trkpt lat="56.914588032879" lon="14.82824662286">
        <ele>155.6</ele>
        <time>2020-02-06T18:33:20Z</time>
      </trkpt>
      <trkpt lat="56.914581159721" lon="14.828060209404">
        <ele>156.4</ele>
        <time>2020-02-06T18:33:26Z</time>
      </trkpt>
      <trkpt lat="56.914511841408" lon="14.827878238355">
        <ele>156.6</ele>
        <time>2020-02-06T18:33:31Z</time>
      </trkpt>
      <trkpt lat="56.914609825819" lon="14.82757523267">
        <ele>157</ele>
        <time>2020-02-06T18:33:38Z</time>
      </trkpt>
      <trkpt lat="56.914635642071" lon="14.827470878015">
        <ele>156.4</ele>
        <time>2020-02-06T18:33:41Z</time>
      </trkpt>
      <trkpt lat="56.914631618759" lon="14.827396530562">
        <ele>155.8</ele>
        <time>2020-02-06T18:33:45Z</time>
      </trkpt>
      <trkpt lat="56.914633546596" lon="14.827349927198">
        <ele>155.6</ele>
        <time>2020-02-06T18:33:47Z</time>
      </trkpt>
      <trkpt lat="56.914629188008" lon="14.827293684649">
        <ele>155.4</ele>
        <time>2020-02-06T18:33:49Z</time>
      </trkpt>
      <trkpt lat="56.914615944606" lon="14.82719217984">
        <ele>155.6</ele>
        <time>2020-02-06T18:33:54Z</time>
      </trkpt>
      <trkpt lat="56.914616028425" lon="14.82714607939">
        <ele>155.6</ele>
        <time>2020-02-06T18:33:56Z</time>
      </trkpt>
      <trkpt lat="56.914586188861" lon="14.82681080339">
        <ele>155.4</ele>
        <time>2020-02-06T18:34:03Z</time>
      </trkpt>
      <trkpt lat="56.91445551504" lon="14.826527327532">
        <ele>155.6</ele>
        <time>2020-02-06T18:34:09Z</time>
      </trkpt>
      <trkpt lat="56.914447636054" lon="14.82640679581">
        <ele>157</ele>
        <time>2020-02-06T18:34:11Z</time>
      </trkpt>
      <trkpt lat="56.914459119257" lon="14.82635147527">
        <ele>157.6</ele>
        <time>2020-02-06T18:34:12Z</time>
      </trkpt>
      <trkpt lat="56.914513601607" lon="14.826005218981">
        <ele>156.4</ele>
        <time>2020-02-06T18:34:19Z</time>
      </trkpt>
      <trkpt lat="56.914515948539" lon="14.825949563165">
        <ele>156.4</ele>
        <time>2020-02-06T18:34:20Z</time>
      </trkpt>
      <trkpt lat="56.914537909117" lon="14.825650496973">
        <ele>156.4</ele>
        <time>2020-02-06T18:34:26Z</time>
      </trkpt>
      <trkpt lat="56.914572358726" lon="14.82558788418">
        <ele>156.2</ele>
        <time>2020-02-06T18:34:28Z</time>
      </trkpt>
      <trkpt lat="56.914688028946" lon="14.825450588658">
        <ele>156.2</ele>
        <time>2020-02-06T18:34:34Z</time>
      </trkpt>
      <trkpt lat="56.914788108832" lon="14.825352436609">
        <ele>156</ele>
        <time>2020-02-06T18:34:44Z</time>
      </trkpt>
      <trkpt lat="56.914815433826" lon="14.825335672809">
        <ele>156</ele>
        <time>2020-02-06T18:34:46Z</time>
      </trkpt>
      <trkpt lat="56.914843848467" lon="14.825226875747">
        <ele>155.8</ele>
        <time>2020-02-06T18:34:50Z</time>
      </trkpt>
      <trkpt lat="56.914846363037" lon="14.825180020926">
        <ele>155.8</ele>
        <time>2020-02-06T18:34:52Z</time>
      </trkpt>
      <trkpt lat="56.914919117929" lon="14.825042306309">
        <ele>156.4</ele>
        <time>2020-02-06T18:35:05Z</time>
      </trkpt>
      <trkpt lat="56.914984832025" lon="14.824968880865">
        <ele>155.6</ele>
        <time>2020-02-06T18:35:11Z</time>
      </trkpt>
      <trkpt lat="56.914991453726" lon="14.82496007987">
        <ele>155.4</ele>
        <time>2020-02-06T18:35:12Z</time>
      </trkpt>
      <trkpt lat="56.915000925273" lon="14.824954044902">
        <ele>155.4</ele>
        <time>2020-02-06T18:35:13Z</time>
      </trkpt>
      <trkpt lat="56.915022718213" lon="14.824947590839">
        <ele>155.4</ele>
        <time>2020-02-06T18:35:15Z</time>
      </trkpt>
      <trkpt lat="56.915058844202" lon="14.82491146485">
        <ele>155.6</ele>
        <time>2020-02-06T18:35:17Z</time>
      </trkpt>
      <trkpt lat="56.915119864434" lon="14.824867795151">
        <ele>155.6</ele>
        <time>2020-02-06T18:35:22Z</time>
      </trkpt>
      <trkpt lat="56.915153140577" lon="14.824886822064">
        <ele>155.8</ele>
        <time>2020-02-06T18:35:24Z</time>
      </trkpt>
      <trkpt lat="56.915211394782" lon="14.824927139003">
        <ele>155.6</ele>
        <time>2020-02-06T18:35:27Z</time>
      </trkpt>
      <trkpt lat="56.915300745836" lon="14.824909620832">
        <ele>156</ele>
        <time>2020-02-06T18:35:31Z</time>
      </trkpt>
      <trkpt lat="56.915478777392" lon="14.824823706357">
        <ele>155.8</ele>
        <time>2020-02-06T18:35:38Z</time>
      </trkpt>
      <trkpt lat="56.91567759606" lon="14.824793112422">
        <ele>155.8</ele>
        <time>2020-02-06T18:35:45Z</time>
      </trkpt>
      <trkpt lat="56.915734509161" lon="14.824764613962">
        <ele>155.2</ele>
        <time>2020-02-06T18:35:49Z</time>
      </trkpt>
      <trkpt lat="56.915780441973" lon="14.824750867646">
        <ele>155</ele>
        <time>2020-02-06T18:35:53Z</time>
      </trkpt>
      <trkpt lat="56.915801229085" lon="14.824738210977">
        <ele>155</ele>
        <time>2020-02-06T18:35:55Z</time>
      </trkpt>
      <trkpt lat="56.915842468033" lon="14.824735864045">
        <ele>155</ele>
        <time>2020-02-06T18:35:59Z</time>
      </trkpt>
      <trkpt lat="56.915865266801" lon="14.824731170181">
        <ele>155</ele>
        <time>2020-02-06T18:36:02Z</time>
      </trkpt>
      <trkpt lat="56.915875660357" lon="14.824727146869">
        <ele>155</ele>
        <time>2020-02-06T18:36:06Z</time>
      </trkpt>
      <trkpt lat="56.915872726692" lon="14.824727146869">
        <ele>155.2</ele>
        <time>2020-02-06T18:36:10Z</time>
      </trkpt>
      <trkpt lat="56.915863422783" lon="14.824706527395">
        <ele>155.2</ele>
        <time>2020-02-06T18:36:12Z</time>
      </trkpt>
      <trkpt lat="56.915864428611" lon="14.824690266509">
        <ele>155.6</ele>
        <time>2020-02-06T18:36:14Z</time>
      </trkpt>
      <trkpt lat="56.915904410274" lon="14.82463318577">
        <ele>155.6</ele>
        <time>2020-02-06T18:36:22Z</time>
      </trkpt>
      <trkpt lat="56.916093003024" lon="14.824560179421">
        <ele>156</ele>
        <time>2020-02-06T18:36:34Z</time>
      </trkpt>
      <trkpt lat="56.916221329913" lon="14.824489520004">
        <ele>155.8</ele>
        <time>2020-02-06T18:36:42Z</time>
      </trkpt>
      <trkpt lat="56.916336497219" lon="14.82439094886">
        <ele>155.4</ele>
        <time>2020-02-06T18:36:50Z</time>
      </trkpt>
      <trkpt lat="56.916372036475" lon="14.824356331613">
        <ele>155.4</ele>
        <time>2020-02-06T18:36:53Z</time>
      </trkpt>
      <trkpt lat="56.916404725885" lon="14.824336047415">
        <ele>155.4</ele>
        <time>2020-02-06T18:36:56Z</time>
      </trkpt>
      <trkpt lat="56.916474547112" lon="14.824242505411">
        <ele>155.8</ele>
        <time>2020-02-06T18:37:02Z</time>
      </trkpt>
      <trkpt lat="56.916510505463" lon="14.824195985866">
        <ele>155.6</ele>
        <time>2020-02-06T18:37:06Z</time>
      </trkpt>
      <trkpt lat="56.916542356683" lon="14.824124739716">
        <ele>155.8</ele>
        <time>2020-02-06T18:37:09Z</time>
      </trkpt>
      <trkpt lat="56.916575046093" lon="14.82408752408">
        <ele>156</ele>
        <time>2020-02-06T18:37:13Z</time>
      </trkpt>
      <trkpt lat="56.916647800985" lon="14.824106048079">
        <ele>156.2</ele>
        <time>2020-02-06T18:37:19Z</time>
      </trkpt>
      <trkpt lat="56.916666911717" lon="14.824133875987">
        <ele>156.6</ele>
        <time>2020-02-06T18:37:22Z</time>
      </trkpt>
      <trkpt lat="56.916687866467" lon="14.824194393305">
        <ele>158</ele>
        <time>2020-02-06T18:37:25Z</time>
      </trkpt>
      <trkpt lat="56.916692392693" lon="14.823953581318">
        <ele>157.2</ele>
        <time>2020-02-06T18:37:43Z</time>
      </trkpt>
      <trkpt lat="56.916664229509" lon="14.823890214154">
        <ele>156.8</ele>
        <time>2020-02-06T18:37:45Z</time>
      </trkpt>
      <trkpt lat="56.916658026903" lon="14.823847969378">
        <ele>156.4</ele>
        <time>2020-02-06T18:37:47Z</time>
      </trkpt>
      <trkpt lat="56.916657188713" lon="14.823814357959">
        <ele>156</ele>
        <time>2020-02-06T18:37:49Z</time>
      </trkpt>
      <trkpt lat="56.916626594778" lon="14.823765491482">
        <ele>155.8</ele>
        <time>2020-02-06T18:37:51Z</time>
      </trkpt>
      <trkpt lat="56.916613770471" lon="14.823721821783">
        <ele>156</ele>
        <time>2020-02-06T18:37:53Z</time>
      </trkpt>
      <trkpt lat="56.916557360284" lon="14.823703549241">
        <ele>156.2</ele>
        <time>2020-02-06T18:37:56Z</time>
      </trkpt>
      <trkpt lat="56.916494998948" lon="14.823645127398">
        <ele>156</ele>
        <time>2020-02-06T18:37:59Z</time>
      </trkpt>
      <trkpt lat="56.91647806751" lon="14.823617467128">
        <ele>155.8</ele>
        <time>2020-02-06T18:38:01Z</time>
      </trkpt>
      <trkpt lat="56.916469350334" lon="14.823613527635">
        <ele>155.8</ele>
        <time>2020-02-06T18:38:02Z</time>
      </trkpt>
      <trkpt lat="56.916434062535" lon="14.823577820741">
        <ele>155.6</ele>
        <time>2020-02-06T18:38:05Z</time>
      </trkpt>
      <trkpt lat="56.916368180801" lon="14.823550160471">
        <ele>156</ele>
        <time>2020-02-06T18:38:10Z</time>
      </trkpt>
      <trkpt lat="56.91634395711" lon="14.823526272056">
        <ele>156</ele>
        <time>2020-02-06T18:38:13Z</time>
      </trkpt>
      <trkpt lat="56.916315877745" lon="14.823533312852">
        <ele>156.2</ele>
        <time>2020-02-06T18:38:15Z</time>
      </trkpt>
      <trkpt lat="56.916305065094" lon="14.823510178808">
        <ele>156.2</ele>
        <time>2020-02-06T18:38:18Z</time>
      </trkpt>
      <trkpt lat="56.916276734272" lon="14.823437256278">
        <ele>156.2</ele>
        <time>2020-02-06T18:38:21Z</time>
      </trkpt>
      <trkpt lat="56.916247146165" lon="14.823331560519">
        <ele>156.2</ele>
        <time>2020-02-06T18:38:25Z</time>
      </trkpt>
      <trkpt lat="56.916228035433" lon="14.823274898875">
        <ele>156.2</ele>
        <time>2020-02-06T18:38:28Z</time>
      </trkpt>
      <trkpt lat="56.916217893334" lon="14.823122683571">
        <ele>156.8</ele>
        <time>2020-02-06T18:38:34Z</time>
      </trkpt>
      <trkpt lat="56.916226023777" lon="14.823100890631">
        <ele>157</ele>
        <time>2020-02-06T18:38:35Z</time>
      </trkpt>
      <trkpt lat="56.916225520863" lon="14.823081193166">
        <ele>157</ele>
        <time>2020-02-06T18:38:36Z</time>
      </trkpt>
      <trkpt lat="56.916215797859" lon="14.823039535123">
        <ele>156.8</ele>
        <time>2020-02-06T18:38:38Z</time>
      </trkpt>
      <trkpt lat="56.916171541427" lon="14.82286879582">
        <ele>156.6</ele>
        <time>2020-02-06T18:38:45Z</time>
      </trkpt>
      <trkpt lat="56.916168272486" lon="14.822782126974">
        <ele>156.2</ele>
        <time>2020-02-06T18:38:49Z</time>
      </trkpt>
      <trkpt lat="56.916149077935" lon="14.822734098687">
        <ele>156</ele>
        <time>2020-02-06T18:38:51Z</time>
      </trkpt>
      <trkpt lat="56.91611513124" lon="14.822688836427">
        <ele>155.8</ele>
        <time>2020-02-06T18:38:53Z</time>
      </trkpt>
      <trkpt lat="56.916087973884" lon="14.822639550855">
        <ele>156.4</ele>
        <time>2020-02-06T18:38:55Z</time>
      </trkpt>
      <trkpt lat="56.915979763555" lon="14.822547266136">
        <ele>157</ele>
        <time>2020-02-06T18:39:03Z</time>
      </trkpt>
      <trkpt lat="56.91599024093" lon="14.822371246236">
        <ele>156.8</ele>
        <time>2020-02-06T18:39:18Z</time>
      </trkpt>
      <trkpt lat="56.916027624204" lon="14.822330258745">
        <ele>156.2</ele>
        <time>2020-02-06T18:39:22Z</time>
      </trkpt>
      <trkpt lat="56.916042292529" lon="14.822305280683">
        <ele>155.8</ele>
        <time>2020-02-06T18:39:24Z</time>
      </trkpt>
      <trkpt lat="56.916049500963" lon="14.822291199091">
        <ele>155.6</ele>
        <time>2020-02-06T18:39:27Z</time>
      </trkpt>
      <trkpt lat="56.916224012121" lon="14.82217728907">
        <ele>155.6</ele>
        <time>2020-02-06T18:39:38Z</time>
      </trkpt>
      <trkpt lat="56.916239434817" lon="14.822164883858">
        <ele>155.6</ele>
        <time>2020-02-06T18:39:39Z</time>
      </trkpt>
      <trkpt lat="56.916355105037" lon="14.822100091771">
        <ele>155.6</ele>
        <time>2020-02-06T18:39:45Z</time>
      </trkpt>
      <trkpt lat="56.916378155262" lon="14.822086177817">
        <ele>155.6</ele>
        <time>2020-02-06T18:39:47Z</time>
      </trkpt>
      <trkpt lat="56.91645376" lon="14.822102606341">
        <ele>155.6</ele>
        <time>2020-02-06T18:39:50Z</time>
      </trkpt>
      <trkpt lat="56.916578315034" lon="14.822110904422">
        <ele>155.4</ele>
        <time>2020-02-06T18:39:56Z</time>
      </trkpt>
      <trkpt lat="56.916611507358" lon="14.822097241925">
        <ele>155.4</ele>
        <time>2020-02-06T18:39:58Z</time>
      </trkpt>
      <trkpt lat="56.916631791556" lon="14.821990707976">
        <ele>155.6</ele>
        <time>2020-02-06T18:40:11Z</time>
      </trkpt>
      <trkpt lat="56.916654590324" lon="14.821974698547">
        <ele>155.2</ele>
        <time>2020-02-06T18:40:14Z</time>
      </trkpt>
      <trkpt lat="56.916683340241" lon="14.821995653297">
        <ele>155.2</ele>
        <time>2020-02-06T18:40:19Z</time>
      </trkpt>
      <trkpt lat="56.916685184259" lon="14.822012249459">
        <ele>155.2</ele>
        <time>2020-02-06T18:40:25Z</time>
      </trkpt>
      <trkpt lat="56.916646208424" lon="14.822069581655">
        <ele>155.2</ele>
        <time>2020-02-06T18:40:33Z</time>
      </trkpt>
      <trkpt lat="56.916645537872" lon="14.822119956874">
        <ele>155.4</ele>
        <time>2020-02-06T18:40:37Z</time>
      </trkpt>
      <trkpt lat="56.916646208424" lon="14.822145856945">
        <ele>155.4</ele>
        <time>2020-02-06T18:40:39Z</time>
      </trkpt>
      <trkpt lat="56.916643107121" lon="14.822180306554">
        <ele>155.2</ele>
        <time>2020-02-06T18:40:42Z</time>
      </trkpt>
      <trkpt lat="56.916673701056" lon="14.82225188798">
        <ele>155.4</ele>
        <time>2020-02-06T18:40:46Z</time>
      </trkpt>
      <trkpt lat="56.916680574214" lon="14.822258761138">
        <ele>155.4</ele>
        <time>2020-02-06T18:40:47Z</time>
      </trkpt>
      <trkpt lat="56.916692727969" lon="14.822304358674">
        <ele>155.4</ele>
        <time>2020-02-06T18:40:49Z</time>
      </trkpt>
      <trkpt lat="56.916730865614" lon="14.82235498535">
        <ele>155.2</ele>
        <time>2020-02-06T18:40:56Z</time>
      </trkpt>
      <trkpt lat="56.916773613304" lon="14.822401421076">
        <ele>155.2</ele>
        <time>2020-02-06T18:40:59Z</time>
      </trkpt>
      <trkpt lat="56.916818288831" lon="14.822461938394">
        <ele>155.2</ele>
        <time>2020-02-06T18:41:01Z</time>
      </trkpt>
      <trkpt lat="56.916870088973" lon="14.82256453285">
        <ele>156.4</ele>
        <time>2020-02-06T18:41:05Z</time>
      </trkpt>
      <trkpt lat="56.916889283524" lon="14.82260057502">
        <ele>157</ele>
        <time>2020-02-06T18:41:07Z</time>
      </trkpt>
      <trkpt lat="56.916896827234" lon="14.822625385444">
        <ele>157.4</ele>
        <time>2020-02-06T18:41:09Z</time>
      </trkpt>
      <trkpt lat="56.916858102856" lon="14.822640640502">
        <ele>158</ele>
        <time>2020-02-06T18:41:36Z</time>
      </trkpt>
      <trkpt lat="56.916842931617" lon="14.822719765638">
        <ele>158</ele>
        <time>2020-02-06T18:41:42Z</time>
      </trkpt>
      <trkpt lat="56.916965558814" lon="14.822706270779">
        <ele>158</ele>
        <time>2020-02-06T18:41:54Z</time>
      </trkpt>
      <trkpt lat="56.917081983405" lon="14.822807356493">
        <ele>158</ele>
        <time>2020-02-06T18:42:38Z</time>
      </trkpt>
      <trkpt lat="56.91712850295" lon="14.822895953176">
        <ele>159</ele>
        <time>2020-02-06T18:42:48Z</time>
      </trkpt>
      <trkpt lat="56.917125820742" lon="14.822907101103">
        <ele>159.2</ele>
        <time>2020-02-06T18:42:49Z</time>
      </trkpt>
      <trkpt lat="56.917124731095" lon="14.822917829935">
        <ele>159.2</ele>
        <time>2020-02-06T18:42:50Z</time>
      </trkpt>
      <trkpt lat="56.917147026949" lon="14.823007516265">
        <ele>159.2</ele>
        <time>2020-02-06T18:42:57Z</time>
      </trkpt>
      <trkpt lat="56.917092293142" lon="14.823071973076">
        <ele>159.4</ele>
        <time>2020-02-06T18:44:16Z</time>
      </trkpt>
      <trkpt lat="56.917066560709" lon="14.823048252299">
        <ele>158</ele>
        <time>2020-02-06T18:44:18Z</time>
      </trkpt>
      <trkpt lat="56.917025908494" lon="14.822991255379">
        <ele>159.2</ele>
        <time>2020-02-06T18:44:20Z</time>
      </trkpt>
      <trkpt lat="56.917009815246" lon="14.822964517118">
        <ele>157.8</ele>
        <time>2020-02-06T18:44:21Z</time>
      </trkpt>
      <trkpt lat="56.916990955971" lon="14.822935599563">
        <ele>158.8</ele>
        <time>2020-02-06T18:44:22Z</time>
      </trkpt>
      <trkpt lat="56.916944520245" lon="14.822870304562">
        <ele>157.6</ele>
        <time>2020-02-06T18:44:24Z</time>
      </trkpt>
      <trkpt lat="56.916840668504" lon="14.822750443392">
        <ele>157.4</ele>
        <time>2020-02-06T18:44:30Z</time>
      </trkpt>
      <trkpt lat="56.916748048509" lon="14.822507452111">
        <ele>156.2</ele>
        <time>2020-02-06T18:45:16Z</time>
      </trkpt>
      <trkpt lat="56.916749221975" lon="14.822495046899">
        <ele>155.6</ele>
        <time>2020-02-06T18:45:17Z</time>
      </trkpt>
      <trkpt lat="56.91675047926" lon="14.822487838465">
        <ele>155</ele>
        <time>2020-02-06T18:45:18Z</time>
      </trkpt>
      <trkpt lat="56.916750395441" lon="14.822479121289">
        <ele>154.8</ele>
        <time>2020-02-06T18:45:19Z</time>
      </trkpt>
      <trkpt lat="56.916762884472" lon="14.822444923137">
        <ele>154.4</ele>
        <time>2020-02-06T18:45:21Z</time>
      </trkpt>
      <trkpt lat="56.916747713233" lon="14.822394296461">
        <ele>154.4</ele>
        <time>2020-02-06T18:45:25Z</time>
      </trkpt>
      <trkpt lat="56.916765231404" lon="14.822325900157">
        <ele>154.4</ele>
        <time>2020-02-06T18:45:29Z</time>
      </trkpt>
      <trkpt lat="56.916760202264" lon="14.822199752562">
        <ele>154.2</ele>
        <time>2020-02-06T18:45:35Z</time>
      </trkpt>
      <trkpt lat="56.916771182553" lon="14.821816112999">
        <ele>154.8</ele>
        <time>2020-02-06T18:45:53Z</time>
      </trkpt>
      <trkpt lat="56.916772020743" lon="14.821796415534">
        <ele>154.8</ele>
        <time>2020-02-06T18:45:54Z</time>
      </trkpt>
      <trkpt lat="56.916756849504" lon="14.821704801367">
        <ele>154.8</ele>
        <time>2020-02-06T18:46:00Z</time>
      </trkpt>
      <trkpt lat="56.916774954408" lon="14.821693401983">
        <ele>154.8</ele>
        <time>2020-02-06T18:46:02Z</time>
      </trkpt>
      <trkpt lat="56.916768332707" lon="14.821664652066">
        <ele>155</ele>
        <time>2020-02-06T18:46:05Z</time>
      </trkpt>
      <trkpt lat="56.916752490916" lon="14.821551664054">
        <ele>155.2</ele>
        <time>2020-02-06T18:46:10Z</time>
      </trkpt>
      <trkpt lat="56.916754754029" lon="14.821476897506">
        <ele>155.2</ele>
        <time>2020-02-06T18:46:12Z</time>
      </trkpt>
      <trkpt lat="56.916786689068" lon="14.821332812645">
        <ele>155.2</ele>
        <time>2020-02-06T18:46:16Z</time>
      </trkpt>
      <trkpt lat="56.916833208613" lon="14.821224099402">
        <ele>155.6</ele>
        <time>2020-02-06T18:46:22Z</time>
      </trkpt>
      <trkpt lat="56.916838992124" lon="14.821203563747">
        <ele>155.8</ele>
        <time>2020-02-06T18:46:24Z</time>
      </trkpt>
      <trkpt lat="56.916904790039" lon="14.821186045576">
        <ele>155.6</ele>
        <time>2020-02-06T18:46:59Z</time>
      </trkpt>
      <trkpt lat="56.916955584353" lon="14.821229044723">
        <ele>156.2</ele>
        <time>2020-02-06T18:47:02Z</time>
      </trkpt>
      <trkpt lat="56.917012916549" lon="14.821262320866">
        <ele>157.2</ele>
        <time>2020-02-06T18:47:06Z</time>
      </trkpt>
      <trkpt lat="56.917170915364" lon="14.821371285566">
        <ele>157</ele>
        <time>2020-02-06T18:47:19Z</time>
      </trkpt>
      <trkpt lat="56.917205197335" lon="14.821331220084">
        <ele>156</ele>
        <time>2020-02-06T18:47:23Z</time>
      </trkpt>
      <trkpt lat="56.917251633061" lon="14.821292495706">
        <ele>155.2</ele>
        <time>2020-02-06T18:47:28Z</time>
      </trkpt>
      <trkpt lat="56.917416672672" lon="14.821332561188">
        <ele>156</ele>
        <time>2020-02-06T18:47:39Z</time>
      </trkpt>
      <trkpt lat="56.917488254098" lon="14.821357455431">
        <ele>156.8</ele>
        <time>2020-02-06T18:47:44Z</time>
      </trkpt>
      <trkpt lat="56.917526056467" lon="14.82137681762">
        <ele>157.2</ele>
        <time>2020-02-06T18:47:47Z</time>
      </trkpt>
      <trkpt lat="56.917560506076" lon="14.821390061022">
        <ele>157.6</ele>
        <time>2020-02-06T18:47:52Z</time>
      </trkpt>
      <trkpt lat="56.917549358149" lon="14.821409590849">
        <ele>157.8</ele>
        <time>2020-02-06T18:47:54Z</time>
      </trkpt>
      <trkpt lat="56.917525553553" lon="14.821442112621">
        <ele>158</ele>
        <time>2020-02-06T18:47:57Z</time>
      </trkpt>
      <trkpt lat="56.917516333463" lon="14.821447979951">
        <ele>158.2</ele>
        <time>2020-02-06T18:47:58Z</time>
      </trkpt>
      <trkpt lat="56.917526307924" lon="14.821483183931">
        <ele>158.4</ele>
        <time>2020-02-06T18:48:01Z</time>
      </trkpt>
      <trkpt lat="56.917534270729" lon="14.821515035151">
        <ele>158.4</ele>
        <time>2020-02-06T18:48:02Z</time>
      </trkpt>
      <trkpt lat="56.917520440594" lon="14.821717038941">
        <ele>157.8</ele>
        <time>2020-02-06T18:48:10Z</time>
      </trkpt>
      <trkpt lat="56.917464198045" lon="14.821527021268">
        <ele>157</ele>
        <time>2020-02-06T18:48:56Z</time>
      </trkpt>
      <trkpt lat="56.917473250497" lon="14.821509000183">
        <ele>156.8</ele>
        <time>2020-02-06T18:48:57Z</time>
      </trkpt>
      <trkpt lat="56.917498396197" lon="14.821418308025">
        <ele>156.8</ele>
        <time>2020-02-06T18:49:03Z</time>
      </trkpt>
      <trkpt lat="56.9175098794" lon="14.821400789854">
        <ele>157.2</ele>
        <time>2020-02-06T18:49:05Z</time>
      </trkpt>
      <trkpt lat="56.917555896031" lon="14.821348570617">
        <ele>157.6</ele>
        <time>2020-02-06T18:49:09Z</time>
      </trkpt>
      <trkpt lat="56.91756100899" lon="14.821310768248">
        <ele>157.4</ele>
        <time>2020-02-06T18:49:11Z</time>
      </trkpt>
      <trkpt lat="56.917618927919" lon="14.821318814872">
        <ele>157</ele>
        <time>2020-02-06T18:49:16Z</time>
      </trkpt>
      <trkpt lat="56.917805509013" lon="14.821157798573">
        <ele>156.4</ele>
        <time>2020-02-06T18:49:26Z</time>
      </trkpt>
      <trkpt lat="56.917926124554" lon="14.820987310727">
        <ele>155.8</ele>
        <time>2020-02-06T18:49:31Z</time>
      </trkpt>
      <trkpt lat="56.918073562175" lon="14.820730824587">
        <ele>155.2</ele>
        <time>2020-02-06T18:49:40Z</time>
      </trkpt>
      <trkpt lat="56.918075490012" lon="14.820712468226">
        <ele>155</ele>
        <time>2020-02-06T18:49:41Z</time>
      </trkpt>
      <trkpt lat="56.918059312945" lon="14.820686232879">
        <ele>155</ele>
        <time>2020-02-06T18:49:43Z</time>
      </trkpt>
      <trkpt lat="56.91819216606" lon="14.820425807246">
        <ele>155.2</ele>
        <time>2020-02-06T18:49:56Z</time>
      </trkpt>
      <trkpt lat="56.918246229315" lon="14.820314244157">
        <ele>155.4</ele>
        <time>2020-02-06T18:50:01Z</time>
      </trkpt>
      <trkpt lat="56.918279170182" lon="14.820278704901">
        <ele>155.4</ele>
        <time>2020-02-06T18:50:03Z</time>
      </trkpt>
      <trkpt lat="56.918324264804" lon="14.820157334989">
        <ele>154.8</ele>
        <time>2020-02-06T18:50:08Z</time>
      </trkpt>
      <trkpt lat="56.918352679445" lon="14.82009438692">
        <ele>154.8</ele>
        <time>2020-02-06T18:50:11Z</time>
      </trkpt>
      <trkpt lat="56.918357792404" lon="14.820068067754">
        <ele>154.8</ele>
        <time>2020-02-06T18:50:13Z</time>
      </trkpt>
      <trkpt lat="56.918357960042" lon="14.820055578723">
        <ele>154.8</ele>
        <time>2020-02-06T18:50:14Z</time>
      </trkpt>
      <trkpt lat="56.91835896587" lon="14.82001894982">
        <ele>154.6</ele>
        <time>2020-02-06T18:50:16Z</time>
      </trkpt>
      <trkpt lat="56.918371371082" lon="14.819980225442">
        <ele>154.6</ele>
        <time>2020-02-06T18:50:18Z</time>
      </trkpt>
      <trkpt lat="56.918387631968" lon="14.819890539112">
        <ele>154.8</ele>
        <time>2020-02-06T18:50:22Z</time>
      </trkpt>
      <trkpt lat="56.918497015763" lon="14.819707059321">
        <ele>154.6</ele>
        <time>2020-02-06T18:50:29Z</time>
      </trkpt>
      <trkpt lat="56.918538757625" lon="14.819684931105">
        <ele>154.6</ele>
        <time>2020-02-06T18:50:32Z</time>
      </trkpt>
      <trkpt lat="56.918574464519" lon="14.819641680501">
        <ele>154.8</ele>
        <time>2020-02-06T18:50:35Z</time>
      </trkpt>
      <trkpt lat="56.9186162902" lon="14.81960572215">
        <ele>154.8</ele>
        <time>2020-02-06T18:50:37Z</time>
      </trkpt>
      <trkpt lat="56.918702372313" lon="14.819508575929">
        <ele>154.8</ele>
        <time>2020-02-06T18:50:41Z</time>
      </trkpt>
      <trkpt lat="56.918862801879" lon="14.819407657853">
        <ele>154.6</ele>
        <time>2020-02-06T18:50:50Z</time>
      </trkpt>
      <trkpt lat="56.918921307541" lon="14.819316714238">
        <ele>154.6</ele>
        <time>2020-02-06T18:50:54Z</time>
      </trkpt>
      <trkpt lat="56.918973275321" lon="14.819220322388">
        <ele>154.6</ele>
        <time>2020-02-06T18:50:58Z</time>
      </trkpt>
      <trkpt lat="56.918964558145" lon="14.819195176688">
        <ele>154.6</ele>
        <time>2020-02-06T18:51:00Z</time>
      </trkpt>
      <trkpt lat="56.918971263665" lon="14.819147651315">
        <ele>154.8</ele>
        <time>2020-02-06T18:51:03Z</time>
      </trkpt>
      <trkpt lat="56.919009736586" lon="14.819078165364">
        <ele>154.6</ele>
        <time>2020-02-06T18:51:07Z</time>
      </trkpt>
      <trkpt lat="56.919005461817" lon="14.81905419313">
        <ele>154.4</ele>
        <time>2020-02-06T18:51:09Z</time>
      </trkpt>
      <trkpt lat="56.919006216188" lon="14.81901647458">
        <ele>154.4</ele>
        <time>2020-02-06T18:51:12Z</time>
      </trkpt>
      <trkpt lat="56.919031864802" lon="14.818948162095">
        <ele>154.2</ele>
        <time>2020-02-06T18:51:17Z</time>
      </trkpt>
      <trkpt lat="56.919048377145" lon="14.818929973372">
        <ele>154.2</ele>
        <time>2020-02-06T18:51:19Z</time>
      </trkpt>
      <trkpt lat="56.919081234193" lon="14.818948916466">
        <ele>154.4</ele>
        <time>2020-02-06T18:51:23Z</time>
      </trkpt>
      <trkpt lat="56.919100680201" lon="14.818955370529">
        <ele>154.2</ele>
        <time>2020-02-06T18:51:25Z</time>
      </trkpt>
      <trkpt lat="56.919135045991" lon="14.818959729117">
        <ele>154.2</ele>
        <time>2020-02-06T18:51:27Z</time>
      </trkpt>
      <trkpt lat="56.919180727346" lon="14.818937349444">
        <ele>154.2</ele>
        <time>2020-02-06T18:51:30Z</time>
      </trkpt>
      <trkpt lat="56.91920889053" lon="14.818913125753">
        <ele>154.2</ele>
        <time>2020-02-06T18:51:33Z</time>
      </trkpt>
      <trkpt lat="56.919258259921" lon="14.818908264251">
        <ele>154.2</ele>
        <time>2020-02-06T18:51:36Z</time>
      </trkpt>
      <trkpt lat="56.919324141655" lon="14.818869958968">
        <ele>154.2</ele>
        <time>2020-02-06T18:51:40Z</time>
      </trkpt>
      <trkpt lat="56.919415252908" lon="14.818802233216">
        <ele>154</ele>
        <time>2020-02-06T18:51:45Z</time>
      </trkpt>
      <trkpt lat="56.919548525118" lon="14.818608443688">
        <ele>154</ele>
        <time>2020-02-06T18:51:52Z</time>
      </trkpt>
      <trkpt lat="56.91956512128" lon="14.818585393463">
        <ele>154</ele>
        <time>2020-02-06T18:51:54Z</time>
      </trkpt>
      <trkpt lat="56.919574760465" lon="14.818551530587">
        <ele>154</ele>
        <time>2020-02-06T18:51:56Z</time>
      </trkpt>
      <trkpt lat="56.919586578944" lon="14.818536778443">
        <ele>153.8</ele>
        <time>2020-02-06T18:51:58Z</time>
      </trkpt>
      <trkpt lat="56.91959445793" lon="14.818518086806">
        <ele>153.8</ele>
        <time>2020-02-06T18:51:59Z</time>
      </trkpt>
      <trkpt lat="56.91962547096" lon="14.818474333288">
        <ele>154</ele>
        <time>2020-02-06T18:52:02Z</time>
      </trkpt>
      <trkpt lat="56.919667548098" lon="14.818436530919">
        <ele>154</ele>
        <time>2020-02-06T18:52:06Z</time>
      </trkpt>
      <trkpt lat="56.9197310829" lon="14.818327063305">
        <ele>153.8</ele>
        <time>2020-02-06T18:52:17Z</time>
      </trkpt>
      <trkpt lat="56.919738039877" lon="14.818276939543">
        <ele>153.8</ele>
        <time>2020-02-06T18:52:19Z</time>
      </trkpt>
      <trkpt lat="56.919777434807" lon="14.818216170768">
        <ele>154.4</ele>
        <time>2020-02-06T18:52:22Z</time>
      </trkpt>
      <trkpt lat="56.919790510571" lon="14.818185157738">
        <ele>154.6</ele>
        <time>2020-02-06T18:52:24Z</time>
      </trkpt>
      <trkpt lat="56.919809202208" lon="14.818148780292">
        <ele>154.6</ele>
        <time>2020-02-06T18:52:26Z</time>
      </trkpt>
      <trkpt lat="56.919779865558" lon="14.818063368731">
        <ele>154</ele>
        <time>2020-02-06T18:52:33Z</time>
      </trkpt>
      <trkpt lat="56.919790342933" lon="14.818050209148">
        <ele>154.2</ele>
        <time>2020-02-06T18:52:36Z</time>
      </trkpt>
      <trkpt lat="56.919797551367" lon="14.818036462832">
        <ele>154.2</ele>
        <time>2020-02-06T18:52:40Z</time>
      </trkpt>
      <trkpt lat="56.919805262715" lon="14.81803579228">
        <ele>154.4</ele>
        <time>2020-02-06T18:52:44Z</time>
      </trkpt>
      <trkpt lat="56.919831414243" lon="14.818060183609">
        <ele>154.6</ele>
        <time>2020-02-06T18:52:52Z</time>
      </trkpt>
      <trkpt lat="56.919898804719" lon="14.818139560202">
        <ele>154.4</ele>
        <time>2020-02-06T18:53:02Z</time>
      </trkpt>
      <trkpt lat="56.91990458823" lon="14.81816403535">
        <ele>154.8</ele>
        <time>2020-02-06T18:53:05Z</time>
      </trkpt>
      <trkpt lat="56.919968877403" lon="14.818250117463">
        <ele>155.2</ele>
        <time>2020-02-06T18:53:16Z</time>
      </trkpt>
      <trkpt lat="56.919982372262" lon="14.818251961481">
        <ele>156.2</ele>
        <time>2020-02-06T18:53:18Z</time>
      </trkpt>
      <trkpt lat="56.920002069727" lon="14.818242909029">
        <ele>157.4</ele>
        <time>2020-02-06T18:53:21Z</time>
      </trkpt>
      <trkpt lat="56.920045571788" lon="14.818077198866">
        <ele>157.4</ele>
        <time>2020-02-06T18:53:31Z</time>
      </trkpt>
      <trkpt lat="56.920073818791" lon="14.817741503771">
        <ele>158</ele>
        <time>2020-02-06T18:53:38Z</time>
      </trkpt>
      <trkpt lat="56.920033753309" lon="14.817421482829">
        <ele>158.2</ele>
        <time>2020-02-06T18:53:44Z</time>
      </trkpt>
      <trkpt lat="56.91989536814" lon="14.817155106047">
        <ele>158</ele>
        <time>2020-02-06T18:53:52Z</time>
      </trkpt>
      <trkpt lat="56.919873491381" lon="14.817132055822">
        <ele>158.4</ele>
        <time>2020-02-06T18:53:53Z</time>
      </trkpt>
      <trkpt lat="56.91977550697" lon="14.817021414742">
        <ele>158.8</ele>
        <time>2020-02-06T18:53:57Z</time>
      </trkpt>
      <trkpt lat="56.919647515357" lon="14.816713631374">
        <ele>157.4</ele>
        <time>2020-02-06T18:54:04Z</time>
      </trkpt>
      <trkpt lat="56.919525977807" lon="14.816421689797">
        <ele>156.6</ele>
        <time>2020-02-06T18:54:10Z</time>
      </trkpt>
      <trkpt lat="56.919453725829" lon="14.816071577834">
        <ele>156.4</ele>
        <time>2020-02-06T18:54:16Z</time>
      </trkpt>
      <trkpt lat="56.919473004199" lon="14.815743258811">
        <ele>156.8</ele>
        <time>2020-02-06T18:54:22Z</time>
      </trkpt>
      <trkpt lat="56.919513740233" lon="14.815566233083">
        <ele>156.4</ele>
        <time>2020-02-06T18:54:26Z</time>
      </trkpt>
      <trkpt lat="56.919619938906" lon="14.815287954003">
        <ele>156.2</ele>
        <time>2020-02-06T18:54:36Z</time>
      </trkpt>
      <trkpt lat="56.91965061666" lon="14.815234812757">
        <ele>157.4</ele>
        <time>2020-02-06T18:54:39Z</time>
      </trkpt>
      <trkpt lat="56.919677606378" lon="14.815204889374">
        <ele>158.4</ele>
        <time>2020-02-06T18:54:42Z</time>
      </trkpt>
      <trkpt lat="56.919683222251" lon="14.815199189682">
        <ele>158.4</ele>
        <time>2020-02-06T18:54:43Z</time>
      </trkpt>
      <trkpt lat="56.919715660204" lon="14.815193322352">
        <ele>158.8</ele>
        <time>2020-02-06T18:54:46Z</time>
      </trkpt>
      <trkpt lat="56.919726556674" lon="14.815181252416">
        <ele>158.8</ele>
        <time>2020-02-06T18:54:47Z</time>
      </trkpt>
      <trkpt lat="56.919755306591" lon="14.815145545522">
        <ele>159.2</ele>
        <time>2020-02-06T18:54:49Z</time>
      </trkpt>
      <trkpt lat="56.919780033196" lon="14.815115286863">
        <ele>159.4</ele>
        <time>2020-02-06T18:54:51Z</time>
      </trkpt>
      <trkpt lat="56.919804089249" lon="14.815084273833">
        <ele>159.6</ele>
        <time>2020-02-06T18:54:53Z</time>
      </trkpt>
      <trkpt lat="56.919832420071" lon="14.815051919699">
        <ele>159.4</ele>
        <time>2020-02-06T18:54:56Z</time>
      </trkpt>
      <trkpt lat="56.91986351692" lon="14.815018559737">
        <ele>158.6</ele>
        <time>2020-02-06T18:54:59Z</time>
      </trkpt>
      <trkpt lat="56.919887321516" lon="14.814975057676">
        <ele>158.4</ele>
        <time>2020-02-06T18:55:01Z</time>
      </trkpt>
      <trkpt lat="56.919898217986" lon="14.814923508991">
        <ele>157.8</ele>
        <time>2020-02-06T18:55:04Z</time>
      </trkpt>
      <trkpt lat="56.91991045556" lon="14.814871038297">
        <ele>157.8</ele>
        <time>2020-02-06T18:55:07Z</time>
      </trkpt>
      <trkpt lat="56.919924956247" lon="14.814828625883">
        <ele>158.2</ele>
        <time>2020-02-06T18:55:11Z</time>
      </trkpt>
      <trkpt lat="56.919932583776" lon="14.814770371678">
        <ele>159</ele>
        <time>2020-02-06T18:55:15Z</time>
      </trkpt>
      <trkpt lat="56.919910036465" lon="14.814668363955">
        <ele>159.4</ele>
        <time>2020-02-06T18:55:20Z</time>
      </trkpt>
      <trkpt lat="56.919933841061" lon="14.814527631854">
        <ele>160.4</ele>
        <time>2020-02-06T18:55:27Z</time>
      </trkpt>
      <trkpt lat="56.919975582923" lon="14.814424115389">
        <ele>160.4</ele>
        <time>2020-02-06T18:55:35Z</time>
      </trkpt>
      <trkpt lat="56.919989664515" lon="14.814402825363">
        <ele>160.2</ele>
        <time>2020-02-06T18:55:40Z</time>
      </trkpt>
      <trkpt lat="56.92003618406" lon="14.814409866159">
        <ele>159.6</ele>
        <time>2020-02-06T18:55:44Z</time>
      </trkpt>
      <trkpt lat="56.920071471859" lon="14.814392515626">
        <ele>159.2</ele>
        <time>2020-02-06T18:55:46Z</time>
      </trkpt>
      <trkpt lat="56.920087816564" lon="14.81438882759">
        <ele>159</ele>
        <time>2020-02-06T18:55:48Z</time>
      </trkpt>
      <trkpt lat="56.920116482662" lon="14.81439553311">
        <ele>158.4</ele>
        <time>2020-02-06T18:55:51Z</time>
      </trkpt>
      <trkpt lat="56.920193093228" lon="14.814425456493">
        <ele>158.2</ele>
        <time>2020-02-06T18:55:54Z</time>
      </trkpt>
      <trkpt lat="56.920267273043" lon="14.814479016834">
        <ele>158.8</ele>
        <time>2020-02-06T18:55:59Z</time>
      </trkpt>
      <trkpt lat="56.920289987992" lon="14.814503827258">
        <ele>158.8</ele>
        <time>2020-02-06T18:56:01Z</time>
      </trkpt>
      <trkpt lat="56.920344554161" lon="14.814524279094">
        <ele>158.2</ele>
        <time>2020-02-06T18:56:05Z</time>
      </trkpt>
      <trkpt lat="56.920362742884" lon="14.814533583003">
        <ele>158</ele>
        <time>2020-02-06T18:56:06Z</time>
      </trkpt>
      <trkpt lat="56.920438431441" lon="14.814587897715">
        <ele>157</ele>
        <time>2020-02-06T18:56:10Z</time>
      </trkpt>
      <trkpt lat="56.920539517155" lon="14.814662245168">
        <ele>157</ele>
        <time>2020-02-06T18:56:17Z</time>
      </trkpt>
      <trkpt lat="56.920611601495" lon="14.814595273787">
        <ele>156.4</ele>
        <time>2020-02-06T18:56:23Z</time>
      </trkpt>
      <trkpt lat="56.920672537908" lon="14.814480022662">
        <ele>156.4</ele>
        <time>2020-02-06T18:56:28Z</time>
      </trkpt>
      <trkpt lat="56.920695755771" lon="14.814453871134">
        <ele>156.4</ele>
        <time>2020-02-06T18:56:31Z</time>
      </trkpt>
      <trkpt lat="56.920720398557" lon="14.814431072366">
        <ele>156.4</ele>
        <time>2020-02-06T18:56:33Z</time>
      </trkpt>
      <trkpt lat="56.920754093795" lon="14.814436688239">
        <ele>156.2</ele>
        <time>2020-02-06T18:56:37Z</time>
      </trkpt>
      <trkpt lat="56.920797763494" lon="14.81444917727">
        <ele>156</ele>
        <time>2020-02-06T18:56:39Z</time>
      </trkpt>
      <trkpt lat="56.920807402679" lon="14.81444582451">
        <ele>156</ele>
        <time>2020-02-06T18:56:40Z</time>
      </trkpt>
      <trkpt lat="56.920835482044" lon="14.814437107334">
        <ele>156</ele>
        <time>2020-02-06T18:56:42Z</time>
      </trkpt>
      <trkpt lat="56.920853922224" lon="14.81442319338">
        <ele>156.2</ele>
        <time>2020-02-06T18:56:44Z</time>
      </trkpt>
      <trkpt lat="56.920901028502" lon="14.814471473124">
        <ele>156.2</ele>
        <time>2020-02-06T18:56:48Z</time>
      </trkpt>
      <trkpt lat="56.920937992681" lon="14.814843378027">
        <ele>155.8</ele>
        <time>2020-02-06T18:56:57Z</time>
      </trkpt>
      <trkpt lat="56.920954924119" lon="14.814930885063">
        <ele>155.6</ele>
        <time>2020-02-06T18:56:59Z</time>
      </trkpt>
      <trkpt lat="56.921009993202" lon="14.814959886437">
        <ele>155.6</ele>
        <time>2020-02-06T18:57:02Z</time>
      </trkpt>
      <trkpt lat="56.921181486876" lon="14.81478864422">
        <ele>155.6</ele>
        <time>2020-02-06T18:57:09Z</time>
      </trkpt>
      <trkpt lat="56.921327667212" lon="14.814649672318">
        <ele>155.8</ele>
        <time>2020-02-06T18:57:16Z</time>
      </trkpt>
      <trkpt lat="56.921441912509" lon="14.814774981723">
        <ele>155.6</ele>
        <time>2020-02-06T18:57:23Z</time>
      </trkpt>
      <trkpt lat="56.92148541457" lon="14.8148657577">
        <ele>154.8</ele>
        <time>2020-02-06T18:57:27Z</time>
      </trkpt>
      <trkpt lat="56.921510811727" lon="14.814924263362">
        <ele>154.8</ele>
        <time>2020-02-06T18:57:30Z</time>
      </trkpt>
      <trkpt lat="56.921520031817" lon="14.814963993568">
        <ele>154.8</ele>
        <time>2020-02-06T18:57:32Z</time>
      </trkpt>
      <trkpt lat="56.921534951599" lon="14.814993833132">
        <ele>154.8</ele>
        <time>2020-02-06T18:57:34Z</time>
      </trkpt>
      <trkpt lat="56.921548530277" lon="14.815053093165">
        <ele>154.8</ele>
        <time>2020-02-06T18:57:37Z</time>
      </trkpt>
      <trkpt lat="56.921531934115" lon="14.81512056746">
        <ele>154.8</ele>
        <time>2020-02-06T18:57:40Z</time>
      </trkpt>
      <trkpt lat="56.921532604667" lon="14.815171948507">
        <ele>154.8</ele>
        <time>2020-02-06T18:57:42Z</time>
      </trkpt>
      <trkpt lat="56.921559594385" lon="14.81527898537">
        <ele>154.6</ele>
        <time>2020-02-06T18:57:47Z</time>
      </trkpt>
      <trkpt lat="56.921561522222" lon="14.815320140499">
        <ele>154.4</ele>
        <time>2020-02-06T18:57:49Z</time>
      </trkpt>
      <trkpt lat="56.921558672376" lon="14.815423656964">
        <ele>154.4</ele>
        <time>2020-02-06T18:57:53Z</time>
      </trkpt>
      <trkpt lat="56.921655231864" lon="14.815689195556">
        <ele>154.6</ele>
        <time>2020-02-06T18:58:03Z</time>
      </trkpt>
      <trkpt lat="56.921650957095" lon="14.815745270467">
        <ele>154.6</ele>
        <time>2020-02-06T18:58:06Z</time>
      </trkpt>
      <trkpt lat="56.92166227266" lon="14.8159470228">
        <ele>154.2</ele>
        <time>2020-02-06T18:58:15Z</time>
      </trkpt>
      <trkpt lat="56.921648526344" lon="14.815988680843">
        <ele>154.4</ele>
        <time>2020-02-06T18:58:16Z</time>
      </trkpt>
      <trkpt lat="56.921595971831" lon="14.816207867528">
        <ele>155.4</ele>
        <time>2020-02-06T18:58:22Z</time>
      </trkpt>
      <trkpt lat="56.921583398981" lon="14.816574240377">
        <ele>154.8</ele>
        <time>2020-02-06T18:58:30Z</time>
      </trkpt>
      <trkpt lat="56.9215751009" lon="14.816718241419">
        <ele>154.4</ele>
        <time>2020-02-06T18:58:35Z</time>
      </trkpt>
      <trkpt lat="56.921580549135" lon="14.816777082357">
        <ele>153.6</ele>
        <time>2020-02-06T18:58:38Z</time>
      </trkpt>
      <trkpt lat="56.921583147524" lon="14.816839276055">
        <ele>152.6</ele>
        <time>2020-02-06T18:58:42Z</time>
      </trkpt>
      <trkpt lat="56.921580297678" lon="14.816870372904">
        <ele>152.4</ele>
        <time>2020-02-06T18:58:43Z</time>
      </trkpt>
      <trkpt lat="56.921656824425" lon="14.817186454353">
        <ele>153.6</ele>
        <time>2020-02-06T18:58:52Z</time>
      </trkpt>
      <trkpt lat="56.921631175811" lon="14.817240517608">
        <ele>154</ele>
        <time>2020-02-06T18:58:56Z</time>
      </trkpt>
      <trkpt lat="56.921624051196" lon="14.817248564232">
        <ele>154</ele>
        <time>2020-02-06T18:58:57Z</time>
      </trkpt>
      <trkpt lat="56.921609885785" lon="14.817264908937">
        <ele>154</ele>
        <time>2020-02-06T18:58:59Z</time>
      </trkpt>
      <trkpt lat="56.921584069533" lon="14.817287204791">
        <ele>154</ele>
        <time>2020-02-06T18:59:01Z</time>
      </trkpt>
      <trkpt lat="56.921560767851" lon="14.817333975793">
        <ele>154.2</ele>
        <time>2020-02-06T18:59:03Z</time>
      </trkpt>
      <trkpt lat="56.921545931888" lon="14.817455513343">
        <ele>155</ele>
        <time>2020-02-06T18:59:06Z</time>
      </trkpt>
      <trkpt lat="56.921536041246" lon="14.817484011803">
        <ele>155</ele>
        <time>2020-02-06T18:59:07Z</time>
      </trkpt>
      <trkpt lat="56.921518439256" lon="14.817512426444">
        <ele>155</ele>
        <time>2020-02-06T18:59:09Z</time>
      </trkpt>
      <trkpt lat="56.921517098152" lon="14.81756724407">
        <ele>154</ele>
        <time>2020-02-06T18:59:12Z</time>
      </trkpt>
      <trkpt lat="56.921515505591" lon="14.817597838005">
        <ele>153.6</ele>
        <time>2020-02-06T18:59:13Z</time>
      </trkpt>
      <trkpt lat="56.921463789268" lon="14.817685009765">
        <ele>152.6</ele>
        <time>2020-02-06T18:59:18Z</time>
      </trkpt>
      <trkpt lat="56.921403942502" lon="14.817656511305">
        <ele>152</ele>
        <time>2020-02-06T18:59:21Z</time>
      </trkpt>
      <trkpt lat="56.921250889008" lon="14.817817108509">
        <ele>153.2</ele>
        <time>2020-02-06T18:59:26Z</time>
      </trkpt>
      <trkpt lat="56.921234209027" lon="14.817873015782">
        <ele>153.6</ele>
        <time>2020-02-06T18:59:27Z</time>
      </trkpt>
      <trkpt lat="56.921146701991" lon="14.818206196307">
        <ele>152.4</ele>
        <time>2020-02-06T18:59:35Z</time>
      </trkpt>
      <trkpt lat="56.921120131368" lon="14.81836855371">
        <ele>151.2</ele>
        <time>2020-02-06T18:59:39Z</time>
      </trkpt>
      <trkpt lat="56.92104871758" lon="14.818712965981">
        <ele>151.2</ele>
        <time>2020-02-06T18:59:48Z</time>
      </trkpt>
      <trkpt lat="56.921030528857" lon="14.819051427103">
        <ele>150.6</ele>
        <time>2020-02-06T18:59:53Z</time>
      </trkpt>
      <trkpt lat="56.920990463375" lon="14.819211689031">
        <ele>150.2</ele>
        <time>2020-02-06T18:59:56Z</time>
      </trkpt>
      <trkpt lat="56.920923324356" lon="14.81940455655">
        <ele>151.2</ele>
        <time>2020-02-06T19:00:00Z</time>
      </trkpt>
      <trkpt lat="56.920860795382" lon="14.819713764841">
        <ele>152</ele>
        <time>2020-02-06T19:00:05Z</time>
      </trkpt>
      <trkpt lat="56.920842690478" lon="14.819834296563">
        <ele>152.6</ele>
        <time>2020-02-06T19:00:07Z</time>
      </trkpt>
      <trkpt lat="56.920807486498" lon="14.820040323665">
        <ele>153.8</ele>
        <time>2020-02-06T19:00:11Z</time>
      </trkpt>
      <trkpt lat="56.920764235894" lon="14.82040367903">
        <ele>154.4</ele>
        <time>2020-02-06T19:00:18Z</time>
      </trkpt>
      <trkpt lat="56.920758033288" lon="14.82050342364">
        <ele>155</ele>
        <time>2020-02-06T19:00:20Z</time>
      </trkpt>
      <trkpt lat="56.920714866503" lon="14.820729399664">
        <ele>156</ele>
        <time>2020-02-06T19:00:27Z</time>
      </trkpt>
      <trkpt lat="56.920666586759" lon="14.820974821696">
        <ele>157</ele>
        <time>2020-02-06T19:00:33Z</time>
      </trkpt>
      <trkpt lat="56.920663401637" lon="14.82100382307">
        <ele>157.4</ele>
        <time>2020-02-06T19:00:34Z</time>
      </trkpt>
      <trkpt lat="56.920619899576" lon="14.821321245623">
        <ele>156.2</ele>
        <time>2020-02-06T19:00:42Z</time>
      </trkpt>
      <trkpt lat="56.920611769133" lon="14.821371956118">
        <ele>156</ele>
        <time>2020-02-06T19:00:43Z</time>
      </trkpt>
      <trkpt lat="56.920566590692" lon="14.821710920154">
        <ele>154.6</ele>
        <time>2020-02-06T19:00:49Z</time>
      </trkpt>
      <trkpt lat="56.920535829119" lon="14.821917198713">
        <ele>153.6</ele>
        <time>2020-02-06T19:00:53Z</time>
      </trkpt>
      <trkpt lat="56.9205692729" lon="14.822273261825">
        <ele>152.8</ele>
        <time>2020-02-06T19:00:58Z</time>
      </trkpt>
      <trkpt lat="56.920581259017" lon="14.822357332282">
        <ele>152.4</ele>
        <time>2020-02-06T19:00:59Z</time>
      </trkpt>
      <trkpt lat="56.920606739993" lon="14.822583475944">
        <ele>151.4</ele>
        <time>2020-02-06T19:01:02Z</time>
      </trkpt>
      <trkpt lat="56.920637920661" lon="14.82293668921">
        <ele>150.4</ele>
        <time>2020-02-06T19:01:07Z</time>
      </trkpt>
      <trkpt lat="56.920662060533" lon="14.823296440358">
        <ele>150.4</ele>
        <time>2020-02-06T19:01:14Z</time>
      </trkpt>
      <trkpt lat="56.920624761078" lon="14.823637248412">
        <ele>151</ele>
        <time>2020-02-06T19:01:21Z</time>
      </trkpt>
      <trkpt lat="56.920672537908" lon="14.824003788899">
        <ele>149.8</ele>
        <time>2020-02-06T19:01:27Z</time>
      </trkpt>
      <trkpt lat="56.920733977235" lon="14.824138486032">
        <ele>149.2</ele>
        <time>2020-02-06T19:01:30Z</time>
      </trkpt>
      <trkpt lat="56.920854592776" lon="14.824385416806">
        <ele>150</ele>
        <time>2020-02-06T19:01:37Z</time>
      </trkpt>
      <trkpt lat="56.920869261101" lon="14.824426236659">
        <ele>150.4</ele>
        <time>2020-02-06T19:01:39Z</time>
      </trkpt>
      <trkpt lat="56.92087772682" lon="14.824439060966">
        <ele>150.6</ele>
        <time>2020-02-06T19:01:40Z</time>
      </trkpt>
      <trkpt lat="56.920906979651" lon="14.824487675986">
        <ele>150.8</ele>
        <time>2020-02-06T19:01:44Z</time>
      </trkpt>
      <trkpt lat="56.920942015993" lon="14.824530004581">
        <ele>151</ele>
        <time>2020-02-06T19:01:47Z</time>
      </trkpt>
      <trkpt lat="56.920962551648" lon="14.824547941847">
        <ele>150.2</ele>
        <time>2020-02-06T19:01:51Z</time>
      </trkpt>
      <trkpt lat="56.921004377329" lon="14.824553222444">
        <ele>149.2</ele>
        <time>2020-02-06T19:01:56Z</time>
      </trkpt>
      <trkpt lat="56.92101267541" lon="14.824535368997">
        <ele>148.8</ele>
        <time>2020-02-06T19:01:58Z</time>
      </trkpt>
      <trkpt lat="56.92101435179" lon="14.824539559947">
        <ele>148.2</ele>
        <time>2020-02-06T19:02:00Z</time>
      </trkpt>
      <trkpt lat="56.921020973491" lon="14.824598736161">
        <ele>147.6</ele>
        <time>2020-02-06T19:02:04Z</time>
      </trkpt>
      <trkpt lat="56.920943357097" lon="14.824894114317">
        <ele>147.8</ele>
        <time>2020-02-06T19:02:10Z</time>
      </trkpt>
      <trkpt lat="56.920859370459" lon="14.824936442912">
        <ele>148.2</ele>
        <time>2020-02-06T19:02:13Z</time>
      </trkpt>
      <trkpt lat="56.920744789886" lon="14.824734439122">
        <ele>149.4</ele>
        <time>2020-02-06T19:02:20Z</time>
      </trkpt>
      <trkpt lat="56.920720566195" lon="14.824609045898">
        <ele>148.2</ele>
        <time>2020-02-06T19:02:24Z</time>
      </trkpt>
      <trkpt lat="56.920694749943" lon="14.824573255185">
        <ele>147.8</ele>
        <time>2020-02-06T19:02:26Z</time>
      </trkpt>
      <trkpt lat="56.92051311417" lon="14.824548193304">
        <ele>148.8</ele>
        <time>2020-02-06T19:02:34Z</time>
      </trkpt>
      <trkpt lat="56.920497691474" lon="14.824558670679">
        <ele>149</ele>
        <time>2020-02-06T19:02:35Z</time>
      </trkpt>
      <trkpt lat="56.920426026229" lon="14.824598736161">
        <ele>149</ele>
        <time>2020-02-06T19:02:38Z</time>
      </trkpt>
      <trkpt lat="56.920246318293" lon="14.82465749328">
        <ele>148.6</ele>
        <time>2020-02-06T19:02:43Z</time>
      </trkpt>
      <trkpt lat="56.920151770461" lon="14.824654391977">
        <ele>148.4</ele>
        <time>2020-02-06T19:02:46Z</time>
      </trkpt>
      <trkpt lat="56.920043476313" lon="14.824355074328">
        <ele>148.8</ele>
        <time>2020-02-06T19:02:52Z</time>
      </trkpt>
      <trkpt lat="56.919918921279" lon="14.824074532135">
        <ele>148.2</ele>
        <time>2020-02-06T19:02:57Z</time>
      </trkpt>
      <trkpt lat="56.919819344307" lon="14.823743530904">
        <ele>149.2</ele>
        <time>2020-02-06T19:03:03Z</time>
      </trkpt>
      <trkpt lat="56.919809788941" lon="14.823688964735">
        <ele>149.4</ele>
        <time>2020-02-06T19:03:04Z</time>
      </trkpt>
      <trkpt lat="56.919698980223" lon="14.823416552985">
        <ele>149.8</ele>
        <time>2020-02-06T19:03:10Z</time>
      </trkpt>
      <trkpt lat="56.919683557527" lon="14.823386964878">
        <ele>149.8</ele>
        <time>2020-02-06T19:03:11Z</time>
      </trkpt>
    </trkseg>
  </trk>
</gpx>